sensor_id;sensor_type;location;lat;lon;timestamp;P1;durP1;ratioP1;P2;durP2;ratioP2
37205;SDS011;23099;42.636;23.198;2023-08-06T07:33:47;12.15;;;6.78;;
37205;SDS011;23099;42.636;23.198;2023-08-06T07:36:14;12.40;;;5.70;;
37205;SDS011;23099;42.636;23.198;2023-08-06T07:38:41;9.75;;;6.00;;
37205;SDS011;23099;42.636;23.198;2023-08-06T07:41:08;12.10;;;6.32;;
37205;SDS011;23099;42.636;23.198;2023-08-06T07:43:35;10.07;;;6.30;;
37205;SDS011;23099;42.636;23.198;2023-08-06T07:46:02;18.08;;;7.40;;
37205;SDS011;23099;42.636;23.198;2023-08-06T07:48:28;30.38;;;12.02;;
37205;SDS011;23099;42.636;23.198;2023-08-06T07:50:57;11.65;;;7.35;;
37205;SDS011;23099;42.636;23.198;2023-08-06T07:53:25;14.70;;;8.40;;
37205;SDS011;23099;42.636;23.198;2023-08-06T07:55:54;12.02;;;5.90;;
37205;SDS011;23099;42.636;23.198;2023-08-06T07:58:21;11.38;;;6.18;;
37205;SDS011;23099;42.636;23.198;2023-08-06T08:00:49;11.50;;;6.30;;
37205;SDS011;23099;42.636;23.198;2023-08-06T08:03:16;9.38;;;5.15;;
37205;SDS011;23099;42.636;23.198;2023-08-06T08:05:43;9.70;;;5.53;;
37205;SDS011;23099;42.636;23.198;2023-08-06T08:08:11;9.43;;;4.28;;
37205;SDS011;23099;42.636;23.198;2023-08-06T08:10:38;8.43;;;4.50;;
37205;SDS011;23099;42.636;23.198;2023-08-06T08:13:05;11.27;;;5.18;;
37205;SDS011;23099;42.636;23.198;2023-08-06T08:15:32;40.78;;;15.38;;
37205;SDS011;23099;42.636;23.198;2023-08-06T08:17:59;14.70;;;6.13;;
37205;SDS011;23099;42.636;23.198;2023-08-06T08:20:26;35.80;;;10.75;;
37205;SDS011;23099;42.636;23.198;2023-08-06T08:22:56;9.27;;;3.65;;
37205;SDS011;23099;42.636;23.198;2023-08-06T08:25:25;7.22;;;4.03;;
37205;SDS011;23099;42.636;23.198;2023-08-06T08:27:52;6.93;;;3.80;;
37205;SDS011;23099;42.636;23.198;2023-08-06T08:30:19;12.95;;;6.90;;
37205;SDS011;23099;42.636;23.198;2023-08-06T08:32:46;53.22;;;14.15;;
37205;SDS011;23099;42.636;23.198;2023-08-06T08:35:12;10.85;;;4.78;;
37205;SDS011;23099;42.636;23.198;2023-08-06T08:37:41;16.33;;;6.07;;
37205;SDS011;23099;42.636;23.198;2023-08-06T08:40:08;24.85;;;20.65;;
37205;SDS011;23099;42.636;23.198;2023-08-06T08:42:36;27.63;;;22.63;;
37205;SDS011;23099;42.636;23.198;2023-08-06T08:45:04;7.15;;;4.18;;
37205;SDS011;23099;42.636;23.198;2023-08-06T08:47:33;9.10;;;5.10;;
37205;SDS011;23099;42.636;23.198;2023-08-06T08:50:00;9.93;;;5.18;;
37205;SDS011;23099;42.636;23.198;2023-08-06T08:52:27;7.25;;;4.45;;
37205;SDS011;23099;42.636;23.198;2023-08-06T08:54:56;9.52;;;3.92;;
37205;SDS011;23099;42.636;23.198;2023-08-06T08:57:23;6.60;;;3.60;;
37205;SDS011;23099;42.636;23.198;2023-08-06T08:59:51;5.65;;;3.30;;
37205;SDS011;23099;42.636;23.198;2023-08-06T09:02:18;6.97;;;3.10;;
37205;SDS011;23099;42.636;23.198;2023-08-06T09:04:49;5.30;;;3.00;;
37205;SDS011;23099;42.636;23.198;2023-08-06T09:07:17;6.63;;;3.10;;
37205;SDS011;23099;42.636;23.198;2023-08-06T09:09:46;6.72;;;3.50;;
37205;SDS011;23099;42.636;23.198;2023-08-06T09:12:15;6.70;;;2.92;;
37205;SDS011;23099;42.636;23.198;2023-08-06T09:14:42;7.20;;;3.40;;
37205;SDS011;23099;42.636;23.198;2023-08-06T09:17:11;7.75;;;4.28;;
37205;SDS011;23099;42.636;23.198;2023-08-06T09:19:37;7.90;;;3.67;;
37205;SDS011;23099;42.636;23.198;2023-08-06T09:22:11;8.02;;;3.80;;
37205;SDS011;23099;42.636;23.198;2023-08-06T09:24:38;9.43;;;3.90;;
37205;SDS011;23099;42.636;23.198;2023-08-06T09:27:10;6.72;;;3.92;;
37205;SDS011;23099;42.636;23.198;2023-08-06T09:29:39;5.85;;;3.38;;
37205;SDS011;23099;42.636;23.198;2023-08-06T09:32:07;7.65;;;3.47;;
37205;SDS011;23099;42.636;23.198;2023-08-06T09:34:35;9.13;;;5.20;;
37205;SDS011;23099;42.636;23.198;2023-08-06T09:37:02;10.70;;;4.05;;
37205;SDS011;23099;42.636;23.198;2023-08-06T09:41:56;7.85;;;4.13;;
37205;SDS011;23099;42.636;23.198;2023-08-06T09:44:25;9.27;;;4.00;;
37205;SDS011;23099;42.636;23.198;2023-08-06T09:46:54;7.55;;;3.42;;
37205;SDS011;23099;42.636;23.198;2023-08-06T09:49:25;6.03;;;2.60;;
37205;SDS011;23099;42.636;23.198;2023-08-06T09:51:54;4.60;;;2.20;;
37205;SDS011;23099;42.636;23.198;2023-08-06T09:54:23;6.55;;;2.47;;
37205;SDS011;23099;42.636;23.198;2023-08-06T09:56:51;6.00;;;2.72;;
37205;SDS011;23099;42.636;23.198;2023-08-06T09:59:19;4.03;;;2.00;;
37205;SDS011;23099;42.636;23.198;2023-08-06T10:01:46;5.45;;;2.65;;
37205;SDS011;23099;42.636;23.198;2023-08-06T10:04:13;4.97;;;2.25;;
37205;SDS011;23099;42.636;23.198;2023-08-06T10:06:42;6.20;;;2.40;;
37205;SDS011;23099;42.636;23.198;2023-08-06T10:09:14;6.35;;;2.65;;
37205;SDS011;23099;42.636;23.198;2023-08-06T10:11:39;5.28;;;1.90;;
37205;SDS011;23099;42.636;23.198;2023-08-06T10:14:08;10.88;;;2.15;;
37205;SDS011;23099;42.636;23.198;2023-08-06T10:16:38;5.60;;;2.00;;
37205;SDS011;23099;42.636;23.198;2023-08-06T10:21:35;3.35;;;1.38;;
37205;SDS011;23099;42.636;23.198;2023-08-06T10:24:02;3.53;;;1.50;;
37205;SDS011;23099;42.636;23.198;2023-08-06T10:26:36;3.92;;;2.00;;
37205;SDS011;23099;42.636;23.198;2023-08-06T10:31:53;5.68;;;2.13;;
37205;SDS011;23099;42.636;23.198;2023-08-06T10:34:20;4.97;;;2.45;;
37205;SDS011;23099;42.636;23.198;2023-08-06T10:36:47;5.22;;;2.03;;
37205;SDS011;23099;42.636;23.198;2023-08-06T10:39:14;5.90;;;2.33;;
37205;SDS011;23099;42.636;23.198;2023-08-06T10:41:43;4.90;;;2.40;;
37205;SDS011;23099;42.636;23.198;2023-08-06T10:44:10;4.90;;;2.35;;
37205;SDS011;23099;42.636;23.198;2023-08-06T10:46:37;7.38;;;3.35;;
37205;SDS011;23099;42.636;23.198;2023-08-06T10:49:04;6.10;;;2.60;;
37205;SDS011;23099;42.636;23.198;2023-08-06T10:51:32;7.78;;;2.72;;
37205;SDS011;23099;42.636;23.198;2023-08-06T10:53:59;7.22;;;3.55;;
37205;SDS011;23099;42.636;23.198;2023-08-06T10:56:25;6.25;;;3.10;;
37205;SDS011;23099;42.636;23.198;2023-08-06T10:58:54;7.45;;;3.70;;
37205;SDS011;23099;42.636;23.198;2023-08-06T11:01:22;6.10;;;3.40;;
37205;SDS011;23099;42.636;23.198;2023-08-06T11:03:50;7.05;;;3.50;;
37205;SDS011;23099;42.636;23.198;2023-08-06T11:06:18;8.57;;;3.75;;
37205;SDS011;23099;42.636;23.198;2023-08-06T11:08:49;8.18;;;3.60;;
37205;SDS011;23099;42.636;23.198;2023-08-06T11:11:17;8.25;;;2.97;;
37205;SDS011;23099;42.636;23.198;2023-08-06T11:13:44;5.70;;;3.00;;
37205;SDS011;23099;42.636;23.198;2023-08-06T11:18:40;4.18;;;2.05;;
37205;SDS011;23099;42.636;23.198;2023-08-06T11:21:07;5.45;;;2.20;;
37205;SDS011;23099;42.636;23.198;2023-08-06T11:23:34;6.97;;;2.47;;
37205;SDS011;23099;42.636;23.198;2023-08-06T11:26:02;4.68;;;1.77;;
37205;SDS011;23099;42.636;23.198;2023-08-06T11:28:29;5.20;;;2.75;;
37205;SDS011;23099;42.636;23.198;2023-08-06T11:30:56;5.80;;;2.10;;
37205;SDS011;23099;42.636;23.198;2023-08-06T11:33:27;4.55;;;2.30;;
37205;SDS011;23099;42.636;23.198;2023-08-06T11:35:55;5.10;;;2.38;;
37205;SDS011;23099;42.636;23.198;2023-08-06T11:38:24;4.75;;;2.28;;
37205;SDS011;23099;42.636;23.198;2023-08-06T11:40:51;6.43;;;2.70;;
37205;SDS011;23099;42.636;23.198;2023-08-06T11:43:18;6.82;;;2.80;;
37205;SDS011;23099;42.636;23.198;2023-08-06T11:45:45;8.63;;;2.22;;
37205;SDS011;23099;42.636;23.198;2023-08-06T11:48:13;5.32;;;2.03;;
37205;SDS011;23099;42.636;23.198;2023-08-06T11:50:41;5.72;;;2.10;;
37205;SDS011;23099;42.636;23.198;2023-08-06T11:55:38;5.03;;;2.30;;
37205;SDS011;23099;42.636;23.198;2023-08-06T11:58:05;5.22;;;2.20;;
37205;SDS011;23099;42.636;23.198;2023-08-06T12:00:32;4.72;;;1.88;;
37205;SDS011;23099;42.636;23.198;2023-08-06T12:02:59;5.32;;;2.28;;
37205;SDS011;23099;42.636;23.198;2023-08-06T12:05:29;5.57;;;2.38;;
37205;SDS011;23099;42.636;23.198;2023-08-06T12:08:00;4.40;;;2.10;;
37205;SDS011;23099;42.636;23.198;2023-08-06T12:10:28;5.93;;;2.05;;
37205;SDS011;23099;42.636;23.198;2023-08-06T12:12:56;7.55;;;2.60;;
37205;SDS011;23099;42.636;23.198;2023-08-06T12:15:23;6.07;;;2.30;;
37205;SDS011;23099;42.636;23.198;2023-08-06T12:17:50;5.78;;;2.22;;
37205;SDS011;23099;42.636;23.198;2023-08-06T12:20:17;7.97;;;2.97;;
37205;SDS011;23099;42.636;23.198;2023-08-06T12:22:44;4.35;;;2.47;;
37205;SDS011;23099;42.636;23.198;2023-08-06T12:25:12;5.85;;;2.58;;
37205;SDS011;23099;42.636;23.198;2023-08-06T12:27:40;5.28;;;2.60;;
37205;SDS011;23099;42.636;23.198;2023-08-06T12:30:08;5.22;;;2.10;;
37205;SDS011;23099;42.636;23.198;2023-08-06T12:32:36;5.72;;;2.00;;
37205;SDS011;23099;42.636;23.198;2023-08-06T12:35:03;4.77;;;2.60;;
37205;SDS011;23099;42.636;23.198;2023-08-06T12:37:32;6.47;;;2.10;;
37205;SDS011;23099;42.636;23.198;2023-08-06T12:39:59;5.57;;;2.10;;
37205;SDS011;23099;42.636;23.198;2023-08-06T12:42:27;5.00;;;2.05;;
37205;SDS011;23099;42.636;23.198;2023-08-06T12:44:54;4.50;;;2.22;;
37205;SDS011;23099;42.636;23.198;2023-08-06T12:47:21;5.05;;;2.47;;
37205;SDS011;23099;42.636;23.198;2023-08-06T12:49:47;8.00;;;2.70;;
37205;SDS011;23099;42.636;23.198;2023-08-06T12:52:14;4.45;;;2.40;;
37205;SDS011;23099;42.636;23.198;2023-08-06T12:54:41;6.07;;;2.63;;
37205;SDS011;23099;42.636;23.198;2023-08-06T12:57:08;5.13;;;1.73;;
37205;SDS011;23099;42.636;23.198;2023-08-06T12:59:36;6.43;;;2.33;;
37205;SDS011;23099;42.636;23.198;2023-08-06T13:04:29;6.18;;;2.33;;
37205;SDS011;23099;42.636;23.198;2023-08-06T13:06:56;4.75;;;1.98;;
37205;SDS011;23099;42.636;23.198;2023-08-06T13:09:23;5.00;;;2.42;;
37205;SDS011;23099;42.636;23.198;2023-08-06T13:11:51;4.50;;;2.20;;
37205;SDS011;23099;42.636;23.198;2023-08-06T13:14:18;7.07;;;2.45;;
37205;SDS011;23099;42.636;23.198;2023-08-06T13:16:46;5.78;;;1.95;;
37205;SDS011;23099;42.636;23.198;2023-08-06T13:21:58;5.25;;;2.10;;
37205;SDS011;23099;42.636;23.198;2023-08-06T13:24:25;4.70;;;1.88;;
37205;SDS011;23099;42.636;23.198;2023-08-06T13:26:52;5.38;;;2.10;;
37205;SDS011;23099;42.636;23.198;2023-08-06T13:29:19;5.20;;;2.10;;
37205;SDS011;23099;42.636;23.198;2023-08-06T13:31:47;6.57;;;1.88;;
37205;SDS011;23099;42.636;23.198;2023-08-06T13:34:14;4.75;;;1.70;;
37205;SDS011;23099;42.636;23.198;2023-08-06T13:36:41;5.50;;;1.90;;
37205;SDS011;23099;42.636;23.198;2023-08-06T13:39:08;3.17;;;1.42;;
37205;SDS011;23099;42.636;23.198;2023-08-06T13:41:35;5.15;;;2.05;;
37205;SDS011;23099;42.636;23.198;2023-08-06T13:44:03;5.00;;;1.85;;
37205;SDS011;23099;42.636;23.198;2023-08-06T13:46:30;5.22;;;1.77;;
37205;SDS011;23099;42.636;23.198;2023-08-06T13:48:58;4.63;;;1.95;;
37205;SDS011;23099;42.636;23.198;2023-08-06T13:51:25;4.53;;;1.80;;
37205;SDS011;23099;42.636;23.198;2023-08-06T13:53:51;5.55;;;2.17;;
37205;SDS011;23099;42.636;23.198;2023-08-06T13:56:19;4.60;;;1.70;;
37205;SDS011;23099;42.636;23.198;2023-08-06T13:58:46;3.53;;;1.52;;
37205;SDS011;23099;42.636;23.198;2023-08-06T14:01:12;3.55;;;1.33;;
37205;SDS011;23099;42.636;23.198;2023-08-06T14:03:39;2.88;;;1.38;;
37205;SDS011;23099;42.636;23.198;2023-08-06T14:06:07;5.97;;;1.30;;
37205;SDS011;23099;42.636;23.198;2023-08-06T14:08:34;5.60;;;1.33;;
37205;SDS011;23099;42.636;23.198;2023-08-06T14:11:00;3.63;;;1.20;;
37205;SDS011;23099;42.636;23.198;2023-08-06T14:13:27;6.45;;;1.30;;
37205;SDS011;23099;42.636;23.198;2023-08-06T14:15:54;4.15;;;1.48;;
37205;SDS011;23099;42.636;23.198;2023-08-06T14:18:21;4.38;;;1.00;;
37205;SDS011;23099;42.636;23.198;2023-08-06T14:20:47;2.83;;;1.00;;
37205;SDS011;23099;42.636;23.198;2023-08-06T14:23:15;9.77;;;1.40;;
37205;SDS011;23099;42.636;23.198;2023-08-06T14:25:42;4.13;;;1.10;;
37205;SDS011;23099;42.636;23.198;2023-08-06T14:28:09;4.00;;;1.23;;
37205;SDS011;23099;42.636;23.198;2023-08-06T14:30:36;6.38;;;1.00;;
37205;SDS011;23099;42.636;23.198;2023-08-06T14:33:02;3.67;;;1.17;;
37205;SDS011;23099;42.636;23.198;2023-08-06T14:35:29;4.60;;;1.15;;
37205;SDS011;23099;42.636;23.198;2023-08-06T14:37:56;3.85;;;0.93;;
37205;SDS011;23099;42.636;23.198;2023-08-06T14:40:24;4.53;;;0.90;;
37205;SDS011;23099;42.636;23.198;2023-08-06T14:42:53;3.67;;;0.90;;
37205;SDS011;23099;42.636;23.198;2023-08-06T14:45:20;5.20;;;1.20;;
37205;SDS011;23099;42.636;23.198;2023-08-06T14:47:46;4.63;;;1.20;;
37205;SDS011;23099;42.636;23.198;2023-08-06T14:50:13;3.60;;;1.10;;
37205;SDS011;23099;42.636;23.198;2023-08-06T14:52:40;4.00;;;1.00;;
37205;SDS011;23099;42.636;23.198;2023-08-06T14:55:09;3.33;;;1.00;;
37205;SDS011;23099;42.636;23.198;2023-08-06T14:57:37;5.75;;;1.33;;
37205;SDS011;23099;42.636;23.198;2023-08-06T15:02:31;4.40;;;1.00;;
37205;SDS011;23099;42.636;23.198;2023-08-06T15:04:58;3.58;;;1.00;;
37205;SDS011;23099;42.636;23.198;2023-08-06T15:07:25;5.38;;;1.10;;
37205;SDS011;23099;42.636;23.198;2023-08-06T15:09:53;4.85;;;0.80;;
37205;SDS011;23099;42.636;23.198;2023-08-06T15:12:20;2.43;;;0.80;;
37205;SDS011;23099;42.636;23.198;2023-08-06T15:14:49;3.60;;;0.80;;
37205;SDS011;23099;42.636;23.198;2023-08-06T15:17:15;4.65;;;1.02;;
37205;SDS011;23099;42.636;23.198;2023-08-06T15:19:42;3.97;;;0.93;;
37205;SDS011;23099;42.636;23.198;2023-08-06T15:22:09;3.90;;;0.90;;
37205;SDS011;23099;42.636;23.198;2023-08-06T15:24:37;2.92;;;0.90;;
37205;SDS011;23099;42.636;23.198;2023-08-06T15:27:06;5.78;;;1.10;;
37205;SDS011;23099;42.636;23.198;2023-08-06T15:29:33;4.30;;;0.80;;
37205;SDS011;23099;42.636;23.198;2023-08-06T15:32:01;4.55;;;1.20;;
37205;SDS011;23099;42.636;23.198;2023-08-06T15:34:29;5.28;;;1.00;;
37205;SDS011;23099;42.636;23.198;2023-08-06T15:36:55;3.53;;;0.70;;
37205;SDS011;23099;42.636;23.198;2023-08-06T15:39:22;4.90;;;0.50;;
37205;SDS011;23099;42.636;23.198;2023-08-06T15:41:49;1.70;;;0.50;;
37205;SDS011;23099;42.636;23.198;2023-08-06T15:44:15;1.80;;;0.40;;
37205;SDS011;23099;42.636;23.198;2023-08-06T15:46:42;2.53;;;0.40;;
37205;SDS011;23099;42.636;23.198;2023-08-06T15:49:10;3.03;;;0.40;;
37205;SDS011;23099;42.636;23.198;2023-08-06T15:51:37;3.78;;;0.40;;
37205;SDS011;23099;42.636;23.198;2023-08-06T15:54:03;3.38;;;0.50;;
37205;SDS011;23099;42.636;23.198;2023-08-06T15:56:30;1.52;;;0.40;;
37205;SDS011;23099;42.636;23.198;2023-08-06T15:58:57;2.10;;;0.40;;
37205;SDS011;23099;42.636;23.198;2023-08-06T16:01:23;2.58;;;0.50;;
37205;SDS011;23099;42.636;23.198;2023-08-06T16:03:50;4.63;;;0.90;;
37205;SDS011;23099;42.636;23.198;2023-08-06T16:06:18;2.10;;;0.52;;
37205;SDS011;23099;42.636;23.198;2023-08-06T16:08:45;5.28;;;0.50;;
37205;SDS011;23099;42.636;23.198;2023-08-06T16:11:11;2.60;;;0.50;;
37205;SDS011;23099;42.636;23.198;2023-08-06T16:13:38;4.55;;;0.40;;
37205;SDS011;23099;42.636;23.198;2023-08-06T16:16:05;1.38;;;0.40;;
37205;SDS011;23099;42.636;23.198;2023-08-06T16:18:31;2.55;;;0.50;;
37205;SDS011;23099;42.636;23.198;2023-08-06T16:20:58;1.48;;;0.40;;
37205;SDS011;23099;42.636;23.198;2023-08-06T16:23:26;1.88;;;0.50;;
37205;SDS011;23099;42.636;23.198;2023-08-06T16:25:52;2.28;;;0.50;;
37205;SDS011;23099;42.636;23.198;2023-08-06T16:28:19;1.75;;;0.43;;
37205;SDS011;23099;42.636;23.198;2023-08-06T16:30:46;1.83;;;0.60;;
37205;SDS011;23099;42.636;23.198;2023-08-06T16:33:13;1.95;;;0.40;;
37205;SDS011;23099;42.636;23.198;2023-08-06T16:35:39;2.58;;;0.50;;
37205;SDS011;23099;42.636;23.198;2023-08-06T16:38:06;1.58;;;0.43;;
37205;SDS011;23099;42.636;23.198;2023-08-06T16:40:35;3.60;;;0.40;;
37205;SDS011;23099;42.636;23.198;2023-08-06T16:43:01;1.60;;;0.40;;
37205;SDS011;23099;42.636;23.198;2023-08-06T16:45:29;3.05;;;0.40;;
37205;SDS011;23099;42.636;23.198;2023-08-06T16:47:56;1.77;;;0.40;;
37205;SDS011;23099;42.636;23.198;2023-08-06T16:50:22;3.38;;;0.40;;
37205;SDS011;23099;42.636;23.198;2023-08-06T16:52:49;1.42;;;0.40;;
37205;SDS011;23099;42.636;23.198;2023-08-06T16:55:16;2.15;;;0.50;;
37205;SDS011;23099;42.636;23.198;2023-08-06T16:57:45;2.70;;;0.45;;
37205;SDS011;23099;42.636;23.198;2023-08-06T17:00:11;2.40;;;0.60;;
37205;SDS011;23099;42.636;23.198;2023-08-06T17:02:38;4.22;;;0.60;;
37205;SDS011;23099;42.636;23.198;2023-08-06T17:05:05;1.75;;;0.47;;
37205;SDS011;23099;42.636;23.198;2023-08-06T17:07:32;1.88;;;0.50;;
37205;SDS011;23099;42.636;23.198;2023-08-06T17:09:59;5.20;;;0.60;;
37205;SDS011;23099;42.636;23.198;2023-08-06T17:12:26;5.13;;;0.80;;
37205;SDS011;23099;42.636;23.198;2023-08-06T17:14:54;3.80;;;1.15;;
37205;SDS011;23099;42.636;23.198;2023-08-06T17:17:23;4.22;;;1.00;;
37205;SDS011;23099;42.636;23.198;2023-08-06T17:19:50;5.30;;;0.70;;
37205;SDS011;23099;42.636;23.198;2023-08-06T17:22:16;5.82;;;0.63;;
37205;SDS011;23099;42.636;23.198;2023-08-06T17:24:43;2.92;;;0.60;;
37205;SDS011;23099;42.636;23.198;2023-08-06T17:27:10;2.03;;;0.50;;
37205;SDS011;23099;42.636;23.198;2023-08-06T17:29:36;2.08;;;0.45;;
37205;SDS011;23099;42.636;23.198;2023-08-06T17:32:05;3.40;;;0.55;;
37205;SDS011;23099;42.636;23.198;2023-08-06T17:34:32;3.10;;;0.50;;
37205;SDS011;23099;42.636;23.198;2023-08-06T17:36:59;2.25;;;0.50;;
37205;SDS011;23099;42.636;23.198;2023-08-06T17:39:30;1.88;;;0.40;;
37205;SDS011;23099;42.636;23.198;2023-08-06T17:41:56;1.33;;;0.40;;
37205;SDS011;23099;42.636;23.198;2023-08-06T17:44:23;4.63;;;0.55;;
37205;SDS011;23099;42.636;23.198;2023-08-06T17:46:51;1.65;;;0.50;;
37205;SDS011;23099;42.636;23.198;2023-08-06T17:49:19;1.77;;;0.50;;
37205;SDS011;23099;42.636;23.198;2023-08-06T17:51:46;1.80;;;0.50;;
37205;SDS011;23099;42.636;23.198;2023-08-06T17:54:13;6.78;;;0.40;;
37205;SDS011;23099;42.636;23.198;2023-08-06T17:56:40;1.45;;;0.50;;
37205;SDS011;23099;42.636;23.198;2023-08-06T17:59:06;1.25;;;0.40;;
37205;SDS011;23099;42.636;23.198;2023-08-06T18:01:33;2.10;;;0.60;;
37205;SDS011;23099;42.636;23.198;2023-08-06T18:04:00;3.30;;;0.52;;
37205;SDS011;23099;42.636;23.198;2023-08-06T18:06:28;2.20;;;0.43;;
37205;SDS011;23099;42.636;23.198;2023-08-06T18:08:54;2.30;;;0.52;;
37205;SDS011;23099;42.636;23.198;2023-08-06T18:11:21;2.70;;;0.63;;
37205;SDS011;23099;42.636;23.198;2023-08-06T18:13:48;1.90;;;0.50;;
37205;SDS011;23099;42.636;23.198;2023-08-06T18:16:15;1.83;;;0.47;;
37205;SDS011;23099;42.636;23.198;2023-08-06T18:18:42;2.20;;;0.55;;
37205;SDS011;23099;42.636;23.198;2023-08-06T18:21:09;1.98;;;0.40;;
37205;SDS011;23099;42.636;23.198;2023-08-06T18:23:37;2.38;;;0.43;;
37205;SDS011;23099;42.636;23.198;2023-08-06T18:26:04;2.55;;;0.40;;
37205;SDS011;23099;42.636;23.198;2023-08-06T18:28:31;3.10;;;0.50;;
37205;SDS011;23099;42.636;23.198;2023-08-06T18:30:58;1.42;;;0.50;;
37205;SDS011;23099;42.636;23.198;2023-08-06T18:33:24;2.60;;;0.47;;
37205;SDS011;23099;42.636;23.198;2023-08-06T18:35:51;2.05;;;0.50;;
37205;SDS011;23099;42.636;23.198;2023-08-06T18:38:18;2.08;;;0.40;;
37205;SDS011;23099;42.636;23.198;2023-08-06T18:40:46;2.78;;;0.50;;
37205;SDS011;23099;42.636;23.198;2023-08-06T18:43:12;2.30;;;0.38;;
37205;SDS011;23099;42.636;23.198;2023-08-06T18:45:39;1.73;;;0.30;;
37205;SDS011;23099;42.636;23.198;2023-08-06T18:48:06;2.72;;;0.40;;
37205;SDS011;23099;42.636;23.198;2023-08-06T18:50:32;2.25;;;0.40;;
37205;SDS011;23099;42.636;23.198;2023-08-06T18:53:02;1.35;;;0.40;;
37205;SDS011;23099;42.636;23.198;2023-08-06T18:55:29;2.22;;;0.30;;
37205;SDS011;23099;42.636;23.198;2023-08-06T18:57:58;2.97;;;0.30;;
37205;SDS011;23099;42.636;23.198;2023-08-06T19:00:26;1.70;;;0.32;;
37205;SDS011;23099;42.636;23.198;2023-08-06T19:02:52;2.95;;;0.40;;
37205;SDS011;23099;42.636;23.198;2023-08-06T19:05:19;2.50;;;0.50;;
37205;SDS011;23099;42.636;23.198;2023-08-06T19:07:46;1.63;;;0.30;;
37205;SDS011;23099;42.636;23.198;2023-08-06T19:10:12;4.10;;;0.30;;
37205;SDS011;23099;42.636;23.198;2023-08-06T19:12:39;1.25;;;0.30;;
37205;SDS011;23099;42.636;23.198;2023-08-06T19:15:08;1.80;;;0.30;;
37205;SDS011;23099;42.636;23.198;2023-08-06T19:17:35;2.40;;;0.30;;
37205;SDS011;23099;42.636;23.198;2023-08-06T19:20:02;1.20;;;0.30;;
37205;SDS011;23099;42.636;23.198;2023-08-06T19:22:29;0.95;;;0.30;;
37205;SDS011;23099;42.636;23.198;2023-08-06T19:24:55;2.10;;;0.20;;
37205;SDS011;23099;42.636;23.198;2023-08-06T19:27:22;2.30;;;0.50;;
37205;SDS011;23099;42.636;23.198;2023-08-06T19:29:48;1.00;;;0.13;;
37205;SDS011;23099;42.636;23.198;2023-08-06T19:32:16;1.05;;;0.20;;
37205;SDS011;23099;42.636;23.198;2023-08-06T19:34:43;1.50;;;0.30;;
37205;SDS011;23099;42.636;23.198;2023-08-06T19:48:53;1.33;;;0.10;;
37205;SDS011;23099;42.636;23.198;2023-08-06T19:53:47;1.05;;;0.10;;
37205;SDS011;23099;42.636;23.198;2023-08-06T19:56:14;0.82;;;0.03;;
37205;SDS011;23099;42.636;23.198;2023-08-06T19:58:40;0.80;;;0.20;;
37205;SDS011;23099;42.636;23.198;2023-08-06T20:01:07;2.35;;;0.10;;
37205;SDS011;23099;42.636;23.198;2023-08-06T20:03:34;1.48;;;0.20;;
37205;SDS011;23099;42.636;23.198;2023-08-06T20:06:09;2.58;;;0.20;;
37205;SDS011;23099;42.636;23.198;2023-08-06T20:08:35;0.95;;;0.10;;
37205;SDS011;23099;42.636;23.198;2023-08-06T20:11:02;0.40;;;0.10;;
37205;SDS011;23099;42.636;23.198;2023-08-06T20:13:29;0.43;;;0.10;;
37205;SDS011;23099;42.636;23.198;2023-08-06T20:15:57;1.20;;;0.20;;
37205;SDS011;23099;42.636;23.198;2023-08-06T20:20:51;0.70;;;0.30;;
37205;SDS011;23099;42.636;23.198;2023-08-06T20:23:19;1.40;;;0.30;;
37205;SDS011;23099;42.636;23.198;2023-08-06T20:25:46;1.85;;;0.30;;
37205;SDS011;23099;42.636;23.198;2023-08-06T20:28:14;2.30;;;0.32;;
37205;SDS011;23099;42.636;23.198;2023-08-06T20:30:41;1.10;;;0.30;;
37205;SDS011;23099;42.636;23.198;2023-08-06T20:33:08;0.73;;;0.23;;
37205;SDS011;23099;42.636;23.198;2023-08-06T20:35:36;1.27;;;0.20;;
37205;SDS011;23099;42.636;23.198;2023-08-06T20:38:03;1.88;;;0.20;;
37205;SDS011;23099;42.636;23.198;2023-08-06T20:40:31;1.88;;;0.28;;
37205;SDS011;23099;42.636;23.198;2023-08-06T20:42:58;0.75;;;0.30;;
37205;SDS011;23099;42.636;23.198;2023-08-06T20:45:25;1.48;;;0.30;;
37205;SDS011;23099;42.636;23.198;2023-08-06T20:47:51;2.15;;;0.30;;
37205;SDS011;23099;42.636;23.198;2023-08-06T20:50:18;2.42;;;0.28;;
37205;SDS011;23099;42.636;23.198;2023-08-06T20:52:45;0.98;;;0.20;;
37205;SDS011;23099;42.636;23.198;2023-08-06T20:55:12;1.57;;;0.30;;
37205;SDS011;23099;42.636;23.198;2023-08-06T20:57:40;0.60;;;0.20;;
37205;SDS011;23099;42.636;23.198;2023-08-06T21:00:07;1.83;;;0.30;;
37205;SDS011;23099;42.636;23.198;2023-08-06T21:02:35;0.90;;;0.30;;
37205;SDS011;23099;42.636;23.198;2023-08-06T21:05:01;1.98;;;0.35;;
37205;SDS011;23099;42.636;23.198;2023-08-06T21:07:28;1.10;;;0.30;;
37205;SDS011;23099;42.636;23.198;2023-08-06T21:09:55;2.33;;;0.30;;
37205;SDS011;23099;42.636;23.198;2023-08-06T21:12:22;0.80;;;0.30;;
37205;SDS011;23099;42.636;23.198;2023-08-06T21:14:50;2.63;;;0.30;;
37205;SDS011;23099;42.636;23.198;2023-08-06T21:17:17;1.63;;;0.30;;
37205;SDS011;23099;42.636;23.198;2023-08-06T21:19:43;1.15;;;0.30;;
37205;SDS011;23099;42.636;23.198;2023-08-06T21:22:10;3.00;;;0.20;;
37205;SDS011;23099;42.636;23.198;2023-08-06T21:24:37;2.72;;;0.30;;
37205;SDS011;23099;42.636;23.198;2023-08-06T21:27:04;0.85;;;0.30;;
37205;SDS011;23099;42.636;23.198;2023-08-06T21:29:31;1.17;;;0.30;;
37205;SDS011;23099;42.636;23.198;2023-08-06T21:31:59;1.00;;;0.30;;
37205;SDS011;23099;42.636;23.198;2023-08-06T21:34:25;1.48;;;0.38;;
37205;SDS011;23099;42.636;23.198;2023-08-06T21:36:52;0.90;;;0.30;;
37205;SDS011;23099;42.636;23.198;2023-08-06T21:39:19;1.75;;;0.32;;
37205;SDS011;23099;42.636;23.198;2023-08-06T21:41:46;1.33;;;0.30;;
37205;SDS011;23099;42.636;23.198;2023-08-06T21:44:13;1.38;;;0.40;;
37205;SDS011;23099;42.636;23.198;2023-08-06T21:46:39;0.70;;;0.30;;
37205;SDS011;23099;42.636;23.198;2023-08-06T21:49:07;1.00;;;0.35;;
37205;SDS011;23099;42.636;23.198;2023-08-06T21:51:34;1.42;;;0.40;;
37205;SDS011;23099;42.636;23.198;2023-08-06T21:54:01;1.42;;;0.40;;
37205;SDS011;23099;42.636;23.198;2023-08-06T21:56:28;1.23;;;0.32;;
37205;SDS011;23099;42.636;23.198;2023-08-06T21:58:54;3.13;;;0.30;;
37205;SDS011;23099;42.636;23.198;2023-08-06T22:01:23;0.93;;;0.30;;
37205;SDS011;23099;42.636;23.198;2023-08-06T22:03:50;0.90;;;0.30;;
37205;SDS011;23099;42.636;23.198;2023-08-06T22:06:18;1.00;;;0.30;;
37205;SDS011;23099;42.636;23.198;2023-08-06T22:08:45;1.60;;;0.40;;
37205;SDS011;23099;42.636;23.198;2023-08-06T22:11:12;2.55;;;0.30;;
37205;SDS011;23099;42.636;23.198;2023-08-06T22:13:39;2.50;;;0.40;;
37205;SDS011;23099;42.636;23.198;2023-08-06T22:16:06;1.20;;;0.30;;
37205;SDS011;23099;42.636;23.198;2023-08-06T22:18:33;1.33;;;0.30;;
37205;SDS011;23099;42.636;23.198;2023-08-06T22:21:00;1.20;;;0.30;;
37205;SDS011;23099;42.636;23.198;2023-08-06T22:23:28;0.80;;;0.30;;
37205;SDS011;23099;42.636;23.198;2023-08-06T22:25:55;1.00;;;0.30;;
37205;SDS011;23099;42.636;23.198;2023-08-06T22:28:22;2.25;;;0.30;;
37205;SDS011;23099;42.636;23.198;2023-08-06T22:30:49;2.28;;;0.30;;
37205;SDS011;23099;42.636;23.198;2023-08-06T22:33:16;0.98;;;0.30;;
37205;SDS011;23099;42.636;23.198;2023-08-06T22:35:43;1.48;;;0.38;;
37205;SDS011;23099;42.636;23.198;2023-08-06T22:38:09;1.52;;;0.40;;
37205;SDS011;23099;42.636;23.198;2023-08-06T22:40:38;2.97;;;0.40;;
37205;SDS011;23099;42.636;23.198;2023-08-06T22:43:04;1.52;;;0.40;;